sensor_id;sensor_type;location;lat;lon;timestamp;P1;durP1;ratioP1;P2;durP2;ratioP2
13374;SDS011;6756;51.354;15.754;2022-12-29T00:01:14;3.57;;;2.20;;
13374;SDS011;6756;51.354;15.754;2022-12-29T00:05:15;3.17;;;2.00;;
13374;SDS011;6756;51.354;15.754;2022-12-29T00:09:16;2.57;;;1.90;;
13374;SDS011;6756;51.354;15.754;2022-12-29T00:13:17;3.17;;;1.93;;
13374;SDS011;6756;51.354;15.754;2022-12-29T00:17:36;3.00;;;2.10;;
13374;SDS011;6756;51.354;15.754;2022-12-29T00:21:37;3.23;;;2.43;;
13374;SDS011;6756;51.354;15.754;2022-12-29T00:25:57;2.80;;;1.80;;
13374;SDS011;6756;51.354;15.754;2022-12-29T00:30:17;2.53;;;1.53;;
13374;SDS011;6756;51.354;15.754;2022-12-29T00:34:38;2.87;;;1.73;;
13374;SDS011;6756;51.354;15.754;2022-12-29T00:39:01;2.60;;;1.90;;
13374;SDS011;6756;51.354;15.754;2022-12-29T00:43:24;3.87;;;1.70;;
13374;SDS011;6756;51.354;15.754;2022-12-29T00:47:43;5.57;;;2.00;;
13374;SDS011;6756;51.354;15.754;2022-12-29T00:51:44;2.13;;;1.70;;
13374;SDS011;6756;51.354;15.754;2022-12-29T00:55:45;2.60;;;1.40;;
13374;SDS011;6756;51.354;15.754;2022-12-29T00:59:45;3.47;;;2.00;;
13374;SDS011;6756;51.354;15.754;2022-12-29T01:03:46;1.87;;;1.50;;
13374;SDS011;6756;51.354;15.754;2022-12-29T01:07:47;3.17;;;1.50;;
13374;SDS011;6756;51.354;15.754;2022-12-29T01:11:48;2.33;;;1.33;;
13374;SDS011;6756;51.354;15.754;2022-12-29T01:15:50;2.40;;;1.33;;
13374;SDS011;6756;51.354;15.754;2022-12-29T01:19:51;3.33;;;1.90;;
13374;SDS011;6756;51.354;15.754;2022-12-29T01:23:52;2.20;;;1.33;;
13374;SDS011;6756;51.354;15.754;2022-12-29T01:27:52;2.33;;;1.60;;
13374;SDS011;6756;51.354;15.754;2022-12-29T01:31:53;2.47;;;1.70;;
13374;SDS011;6756;51.354;15.754;2022-12-29T01:35:54;3.37;;;1.47;;
13374;SDS011;6756;51.354;15.754;2022-12-29T01:39:55;1.73;;;1.47;;
13374;SDS011;6756;51.354;15.754;2022-12-29T01:43:57;2.47;;;1.50;;
13374;SDS011;6756;51.354;15.754;2022-12-29T01:48:02;2.13;;;1.53;;
13374;SDS011;6756;51.354;15.754;2022-12-29T01:52:05;2.17;;;1.67;;
13374;SDS011;6756;51.354;15.754;2022-12-29T01:56:08;2.53;;;1.77;;
13374;SDS011;6756;51.354;15.754;2022-12-29T02:00:13;2.87;;;1.50;;
13374;SDS011;6756;51.354;15.754;2022-12-29T02:04:15;2.23;;;1.57;;
13374;SDS011;6756;51.354;15.754;2022-12-29T02:08:15;3.63;;;1.80;;
13374;SDS011;6756;51.354;15.754;2022-12-29T02:12:18;3.57;;;1.53;;
13374;SDS011;6756;51.354;15.754;2022-12-29T02:34:20;2.53;;;1.53;;
13374;SDS011;6756;51.354;15.754;2022-12-29T02:47:35;2.40;;;1.50;;
13374;SDS011;6756;51.354;15.754;2022-12-29T02:56:18;2.07;;;1.60;;
13374;SDS011;6756;51.354;15.754;2022-12-29T03:00:18;3.63;;;1.50;;
13374;SDS011;6756;51.354;15.754;2022-12-29T03:04:23;3.20;;;1.57;;
13374;SDS011;6756;51.354;15.754;2022-12-29T03:08:44;1.70;;;1.40;;
13374;SDS011;6756;51.354;15.754;2022-12-29T03:13:01;2.67;;;1.80;;
13374;SDS011;6756;51.354;15.754;2022-12-29T03:17:40;1.40;;;1.20;;
13374;SDS011;6756;51.354;15.754;2022-12-29T03:21:54;2.03;;;1.37;;
13374;SDS011;6756;51.354;15.754;2022-12-29T03:26:16;2.77;;;1.47;;
13374;SDS011;6756;51.354;15.754;2022-12-29T03:30:20;2.47;;;1.40;;
13374;SDS011;6756;51.354;15.754;2022-12-29T03:34:21;1.33;;;1.03;;
13374;SDS011;6756;51.354;15.754;2022-12-29T03:38:34;1.80;;;1.40;;
13374;SDS011;6756;51.354;15.754;2022-12-29T03:42:47;1.30;;;1.20;;
13374;SDS011;6756;51.354;15.754;2022-12-29T03:46:48;1.93;;;1.30;;
13374;SDS011;6756;51.354;15.754;2022-12-29T03:50:50;1.77;;;1.00;;
13374;SDS011;6756;51.354;15.754;2022-12-29T03:54:50;2.50;;;1.07;;
13374;SDS011;6756;51.354;15.754;2022-12-29T03:58:51;1.73;;;1.27;;
13374;SDS011;6756;51.354;15.754;2022-12-29T04:02:52;1.73;;;1.03;;
13374;SDS011;6756;51.354;15.754;2022-12-29T04:06:53;1.57;;;1.07;;
13374;SDS011;6756;51.354;15.754;2022-12-29T04:10:54;2.00;;;1.20;;
13374;SDS011;6756;51.354;15.754;2022-12-29T04:14:54;1.70;;;1.20;;
13374;SDS011;6756;51.354;15.754;2022-12-29T04:18:55;1.40;;;1.00;;
13374;SDS011;6756;51.354;15.754;2022-12-29T04:23:05;2.33;;;1.30;;
13374;SDS011;6756;51.354;15.754;2022-12-29T04:27:06;2.57;;;1.00;;
13374;SDS011;6756;51.354;15.754;2022-12-29T04:31:07;1.97;;;0.97;;
13374;SDS011;6756;51.354;15.754;2022-12-29T04:35:08;1.37;;;1.00;;
13374;SDS011;6756;51.354;15.754;2022-12-29T04:39:09;1.20;;;0.90;;
13374;SDS011;6756;51.354;15.754;2022-12-29T04:43:09;2.40;;;1.30;;
13374;SDS011;6756;51.354;15.754;2022-12-29T04:47:10;1.50;;;0.90;;
13374;SDS011;6756;51.354;15.754;2022-12-29T04:51:11;3.00;;;1.13;;
13374;SDS011;6756;51.354;15.754;2022-12-29T04:55:12;3.23;;;1.27;;
13374;SDS011;6756;51.354;15.754;2022-12-29T04:59:13;1.20;;;0.80;;
13374;SDS011;6756;51.354;15.754;2022-12-29T05:03:14;1.37;;;1.07;;
13374;SDS011;6756;51.354;15.754;2022-12-29T05:07:15;1.33;;;1.00;;
13374;SDS011;6756;51.354;15.754;2022-12-29T05:11:15;1.13;;;0.67;;
13374;SDS011;6756;51.354;15.754;2022-12-29T05:15:16;1.30;;;1.00;;
13374;SDS011;6756;51.354;15.754;2022-12-29T05:19:17;1.77;;;1.00;;
13374;SDS011;6756;51.354;15.754;2022-12-29T05:23:18;2.20;;;1.20;;
13374;SDS011;6756;51.354;15.754;2022-12-29T05:27:19;2.80;;;1.10;;
13374;SDS011;6756;51.354;15.754;2022-12-29T05:31:20;1.10;;;0.80;;
13374;SDS011;6756;51.354;15.754;2022-12-29T05:35:20;1.87;;;1.00;;
13374;SDS011;6756;51.354;15.754;2022-12-29T05:39:21;2.33;;;1.00;;
13374;SDS011;6756;51.354;15.754;2022-12-29T05:43:22;1.57;;;0.93;;
13374;SDS011;6756;51.354;15.754;2022-12-29T05:47:23;1.60;;;0.97;;
13374;SDS011;6756;51.354;15.754;2022-12-29T05:51:24;1.37;;;0.90;;
13374;SDS011;6756;51.354;15.754;2022-12-29T05:55:25;3.23;;;1.53;;
13374;SDS011;6756;51.354;15.754;2022-12-29T05:59:26;1.57;;;1.10;;
13374;SDS011;6756;51.354;15.754;2022-12-29T06:03:26;1.97;;;1.17;;
13374;SDS011;6756;51.354;15.754;2022-12-29T06:07:27;2.40;;;1.57;;
13374;SDS011;6756;51.354;15.754;2022-12-29T06:11:28;1.63;;;1.20;;
13374;SDS011;6756;51.354;15.754;2022-12-29T06:15:29;2.70;;;1.30;;
13374;SDS011;6756;51.354;15.754;2022-12-29T06:19:29;3.30;;;1.40;;
13374;SDS011;6756;51.354;15.754;2022-12-29T06:23:31;2.40;;;0.97;;
13374;SDS011;6756;51.354;15.754;2022-12-29T06:27:32;3.30;;;1.30;;
13374;SDS011;6756;51.354;15.754;2022-12-29T06:31:33;1.63;;;1.17;;
13374;SDS011;6756;51.354;15.754;2022-12-29T06:35:34;2.70;;;1.23;;
13374;SDS011;6756;51.354;15.754;2022-12-29T06:39:34;3.23;;;1.23;;
13374;SDS011;6756;51.354;15.754;2022-12-29T06:43:35;3.90;;;1.53;;
13374;SDS011;6756;51.354;15.754;2022-12-29T06:47:38;1.87;;;1.20;;
13374;SDS011;6756;51.354;15.754;2022-12-29T06:51:38;1.70;;;1.10;;
13374;SDS011;6756;51.354;15.754;2022-12-29T06:55:40;2.30;;;1.30;;
13374;SDS011;6756;51.354;15.754;2022-12-29T06:59:42;1.90;;;1.03;;
13374;SDS011;6756;51.354;15.754;2022-12-29T07:03:43;2.53;;;1.30;;
13374;SDS011;6756;51.354;15.754;2022-12-29T07:07:43;1.80;;;1.20;;
13374;SDS011;6756;51.354;15.754;2022-12-29T07:11:44;3.20;;;1.37;;
13374;SDS011;6756;51.354;15.754;2022-12-29T07:15:45;3.60;;;1.10;;
13374;SDS011;6756;51.354;15.754;2022-12-29T07:19:46;1.80;;;1.20;;
13374;SDS011;6756;51.354;15.754;2022-12-29T07:23:47;1.77;;;1.20;;
13374;SDS011;6756;51.354;15.754;2022-12-29T07:27:47;2.70;;;1.20;;
13374;SDS011;6756;51.354;15.754;2022-12-29T07:31:48;1.47;;;1.10;;
13374;SDS011;6756;51.354;15.754;2022-12-29T07:35:49;3.87;;;1.50;;
13374;SDS011;6756;51.354;15.754;2022-12-29T07:39:50;1.83;;;1.00;;
13374;SDS011;6756;51.354;15.754;2022-12-29T07:43:51;3.23;;;1.37;;
13374;SDS011;6756;51.354;15.754;2022-12-29T07:47:51;1.70;;;1.27;;
13374;SDS011;6756;51.354;15.754;2022-12-29T07:51:52;2.27;;;1.13;;
13374;SDS011;6756;51.354;15.754;2022-12-29T07:55:53;2.97;;;1.37;;
13374;SDS011;6756;51.354;15.754;2022-12-29T07:59:54;1.87;;;1.17;;
13374;SDS011;6756;51.354;15.754;2022-12-29T08:03:54;2.63;;;1.30;;
13374;SDS011;6756;51.354;15.754;2022-12-29T08:07:55;1.77;;;1.20;;
13374;SDS011;6756;51.354;15.754;2022-12-29T08:11:56;3.17;;;1.50;;
13374;SDS011;6756;51.354;15.754;2022-12-29T08:15:58;4.50;;;1.70;;
13374;SDS011;6756;51.354;15.754;2022-12-29T08:19:58;3.67;;;1.27;;
13374;SDS011;6756;51.354;15.754;2022-12-29T08:23:59;1.87;;;0.93;;
13374;SDS011;6756;51.354;15.754;2022-12-29T08:28:00;2.40;;;1.20;;
13374;SDS011;6756;51.354;15.754;2022-12-29T08:32:01;1.53;;;1.00;;
13374;SDS011;6756;51.354;15.754;2022-12-29T08:36:03;2.27;;;1.30;;
13374;SDS011;6756;51.354;15.754;2022-12-29T08:40:06;2.77;;;1.10;;
13374;SDS011;6756;51.354;15.754;2022-12-29T08:44:07;1.57;;;1.00;;
13374;SDS011;6756;51.354;15.754;2022-12-29T08:48:08;2.80;;;1.27;;
13374;SDS011;6756;51.354;15.754;2022-12-29T08:52:09;2.17;;;1.10;;
13374;SDS011;6756;51.354;15.754;2022-12-29T08:56:10;3.10;;;1.43;;
13374;SDS011;6756;51.354;15.754;2022-12-29T09:00:11;2.10;;;1.23;;
13374;SDS011;6756;51.354;15.754;2022-12-29T09:04:12;2.53;;;1.20;;
13374;SDS011;6756;51.354;15.754;2022-12-29T09:08:13;3.10;;;1.20;;
13374;SDS011;6756;51.354;15.754;2022-12-29T09:12:14;2.47;;;1.13;;
13374;SDS011;6756;51.354;15.754;2022-12-29T09:16:16;2.30;;;1.30;;
13374;SDS011;6756;51.354;15.754;2022-12-29T09:20:19;1.50;;;1.00;;
13374;SDS011;6756;51.354;15.754;2022-12-29T09:24:19;1.53;;;1.00;;
13374;SDS011;6756;51.354;15.754;2022-12-29T09:28:20;2.47;;;1.40;;
13374;SDS011;6756;51.354;15.754;2022-12-29T09:32:21;4.00;;;0.83;;
13374;SDS011;6756;51.354;15.754;2022-12-29T09:36:22;2.30;;;0.97;;
13374;SDS011;6756;51.354;15.754;2022-12-29T09:40:30;1.97;;;1.17;;
13374;SDS011;6756;51.354;15.754;2022-12-29T09:44:41;1.40;;;0.90;;
13374;SDS011;6756;51.354;15.754;2022-12-29T09:48:50;2.40;;;1.07;;
13374;SDS011;6756;51.354;15.754;2022-12-29T09:53:24;3.23;;;1.00;;
13374;SDS011;6756;51.354;15.754;2022-12-29T10:02:12;2.13;;;1.10;;
13374;SDS011;6756;51.354;15.754;2022-12-29T10:06:24;1.87;;;1.17;;
13374;SDS011;6756;51.354;15.754;2022-12-29T10:10:43;2.53;;;1.00;;
13374;SDS011;6756;51.354;15.754;2022-12-29T10:23:50;2.47;;;1.20;;
13374;SDS011;6756;51.354;15.754;2022-12-29T10:27:53;2.03;;;1.40;;
13374;SDS011;6756;51.354;15.754;2022-12-29T10:32:00;2.73;;;1.07;;
13374;SDS011;6756;51.354;15.754;2022-12-29T10:36:13;3.93;;;1.60;;
13374;SDS011;6756;51.354;15.754;2022-12-29T10:40:44;4.50;;;1.10;;
13374;SDS011;6756;51.354;15.754;2022-12-29T10:44:45;3.73;;;1.10;;
13374;SDS011;6756;51.354;15.754;2022-12-29T10:48:46;2.97;;;1.40;;
13374;SDS011;6756;51.354;15.754;2022-12-29T10:52:47;1.40;;;1.00;;
13374;SDS011;6756;51.354;15.754;2022-12-29T10:56:50;2.60;;;1.37;;
13374;SDS011;6756;51.354;15.754;2022-12-29T11:00:57;3.13;;;1.20;;
13374;SDS011;6756;51.354;15.754;2022-12-29T11:05:03;2.90;;;1.33;;
13374;SDS011;6756;51.354;15.754;2022-12-29T11:09:17;2.50;;;1.33;;
13374;SDS011;6756;51.354;15.754;2022-12-29T11:13:32;1.53;;;0.90;;
13374;SDS011;6756;51.354;15.754;2022-12-29T11:17:46;1.63;;;1.03;;
13374;SDS011;6756;51.354;15.754;2022-12-29T11:21:48;2.80;;;1.10;;
13374;SDS011;6756;51.354;15.754;2022-12-29T11:30:24;3.33;;;1.40;;
13374;SDS011;6756;51.354;15.754;2022-12-29T11:34:34;2.83;;;1.00;;
13374;SDS011;6756;51.354;15.754;2022-12-29T11:38:36;2.17;;;1.30;;
13374;SDS011;6756;51.354;15.754;2022-12-29T11:42:52;2.57;;;1.20;;
13374;SDS011;6756;51.354;15.754;2022-12-29T11:46:55;3.20;;;1.37;;
13374;SDS011;6756;51.354;15.754;2022-12-29T11:50:57;3.43;;;1.40;;
13374;SDS011;6756;51.354;15.754;2022-12-29T11:55:03;5.13;;;1.30;;
13374;SDS011;6756;51.354;15.754;2022-12-29T12:03:40;1.80;;;1.30;;
13374;SDS011;6756;51.354;15.754;2022-12-29T12:12:35;2.93;;;1.23;;
13374;SDS011;6756;51.354;15.754;2022-12-29T12:20:44;2.17;;;1.13;;
13374;SDS011;6756;51.354;15.754;2022-12-29T12:24:49;3.13;;;1.13;;
13374;SDS011;6756;51.354;15.754;2022-12-29T12:28:58;2.50;;;1.43;;
13374;SDS011;6756;51.354;15.754;2022-12-29T12:33:05;2.53;;;1.50;;
13374;SDS011;6756;51.354;15.754;2022-12-29T13:02:37;2.60;;;1.53;;
13374;SDS011;6756;51.354;15.754;2022-12-29T13:37:29;1.80;;;1.47;;
13374;SDS011;6756;51.354;15.754;2022-12-29T13:41:35;3.43;;;1.50;;
13374;SDS011;6756;51.354;15.754;2022-12-29T13:45:41;1.80;;;1.30;;
13374;SDS011;6756;51.354;15.754;2022-12-29T13:49:45;3.43;;;1.50;;
13374;SDS011;6756;51.354;15.754;2022-12-29T14:07:15;3.60;;;1.60;;
13374;SDS011;6756;51.354;15.754;2022-12-29T14:11:17;3.13;;;1.57;;
13374;SDS011;6756;51.354;15.754;2022-12-29T14:15:22;3.20;;;1.50;;
13374;SDS011;6756;51.354;15.754;2022-12-29T14:19:26;3.57;;;1.53;;
13374;SDS011;6756;51.354;15.754;2022-12-29T14:23:40;1.93;;;1.10;;
13374;SDS011;6756;51.354;15.754;2022-12-29T14:27:43;1.93;;;1.50;;
13374;SDS011;6756;51.354;15.754;2022-12-29T14:31:45;2.83;;;1.47;;
13374;SDS011;6756;51.354;15.754;2022-12-29T14:35:46;3.30;;;1.33;;
13374;SDS011;6756;51.354;15.754;2022-12-29T14:39:49;3.10;;;1.53;;
13374;SDS011;6756;51.354;15.754;2022-12-29T14:44:18;2.17;;;1.20;;
13374;SDS011;6756;51.354;15.754;2022-12-29T14:48:30;2.67;;;1.47;;
13374;SDS011;6756;51.354;15.754;2022-12-29T14:52:32;2.23;;;1.43;;
13374;SDS011;6756;51.354;15.754;2022-12-29T14:56:57;2.57;;;1.40;;
13374;SDS011;6756;51.354;15.754;2022-12-29T15:01:03;2.07;;;1.43;;
13374;SDS011;6756;51.354;15.754;2022-12-29T15:05:26;2.43;;;1.43;;
13374;SDS011;6756;51.354;15.754;2022-12-29T15:09:38;2.17;;;1.40;;
13374;SDS011;6756;51.354;15.754;2022-12-29T15:13:49;3.07;;;1.40;;
13374;SDS011;6756;51.354;15.754;2022-12-29T15:17:50;3.30;;;1.70;;
13374;SDS011;6756;51.354;15.754;2022-12-29T15:21:52;2.90;;;1.60;;
13374;SDS011;6756;51.354;15.754;2022-12-29T15:25:55;4.63;;;1.53;;
13374;SDS011;6756;51.354;15.754;2022-12-29T15:29:59;2.70;;;1.73;;
13374;SDS011;6756;51.354;15.754;2022-12-29T15:34:07;3.30;;;1.70;;
13374;SDS011;6756;51.354;15.754;2022-12-29T15:38:15;2.17;;;1.60;;
13374;SDS011;6756;51.354;15.754;2022-12-29T15:47:26;2.70;;;1.93;;
13374;SDS011;6756;51.354;15.754;2022-12-29T15:51:29;3.33;;;1.80;;
13374;SDS011;6756;51.354;15.754;2022-12-29T15:55:35;2.93;;;1.60;;
13374;SDS011;6756;51.354;15.754;2022-12-29T15:59:44;2.93;;;1.77;;
13374;SDS011;6756;51.354;15.754;2022-12-29T16:03:47;2.73;;;2.00;;
13374;SDS011;6756;51.354;15.754;2022-12-29T16:07:55;3.33;;;2.00;;
13374;SDS011;6756;51.354;15.754;2022-12-29T16:12:03;4.77;;;1.67;;
13374;SDS011;6756;51.354;15.754;2022-12-29T16:16:07;2.50;;;1.70;;
13374;SDS011;6756;51.354;15.754;2022-12-29T16:24:21;6.47;;;2.00;;
13374;SDS011;6756;51.354;15.754;2022-12-29T16:28:33;3.67;;;2.60;;
13374;SDS011;6756;51.354;15.754;2022-12-29T16:32:44;5.47;;;3.10;;
13374;SDS011;6756;51.354;15.754;2022-12-29T16:36:54;6.67;;;4.17;;
13374;SDS011;6756;51.354;15.754;2022-12-29T16:40:58;7.20;;;4.23;;
13374;SDS011;6756;51.354;15.754;2022-12-29T16:49:18;5.17;;;3.27;;
13374;SDS011;6756;51.354;15.754;2022-12-29T16:57:28;5.50;;;3.03;;
13374;SDS011;6756;51.354;15.754;2022-12-29T17:01:31;4.53;;;2.70;;
13374;SDS011;6756;51.354;15.754;2022-12-29T17:05:38;4.57;;;2.80;;
13374;SDS011;6756;51.354;15.754;2022-12-29T17:09:39;6.03;;;2.73;;
13374;SDS011;6756;51.354;15.754;2022-12-29T17:13:40;5.23;;;2.97;;
13374;SDS011;6756;51.354;15.754;2022-12-29T17:17:42;5.10;;;2.83;;
13374;SDS011;6756;51.354;15.754;2022-12-29T17:21:45;5.17;;;2.90;;
13374;SDS011;6756;51.354;15.754;2022-12-29T17:25:46;3.37;;;2.40;;
13374;SDS011;6756;51.354;15.754;2022-12-29T17:29:47;4.70;;;2.60;;
13374;SDS011;6756;51.354;15.754;2022-12-29T17:33:48;3.93;;;2.17;;
13374;SDS011;6756;51.354;15.754;2022-12-29T17:37:49;5.33;;;2.80;;
13374;SDS011;6756;51.354;15.754;2022-12-29T17:41:51;3.60;;;2.30;;
13374;SDS011;6756;51.354;15.754;2022-12-29T17:45:52;3.70;;;2.37;;
13374;SDS011;6756;51.354;15.754;2022-12-29T17:49:55;2.90;;;2.10;;
13374;SDS011;6756;51.354;15.754;2022-12-29T17:53:56;5.00;;;2.80;;
13374;SDS011;6756;51.354;15.754;2022-12-29T17:57:57;3.10;;;2.30;;
13374;SDS011;6756;51.354;15.754;2022-12-29T18:01:58;4.60;;;2.60;;
13374;SDS011;6756;51.354;15.754;2022-12-29T18:05:59;4.20;;;2.40;;
13374;SDS011;6756;51.354;15.754;2022-12-29T18:10:00;4.37;;;2.53;;
13374;SDS011;6756;51.354;15.754;2022-12-29T18:14:01;3.70;;;2.40;;
13374;SDS011;6756;51.354;15.754;2022-12-29T18:18:15;8.40;;;2.47;;
13374;SDS011;6756;51.354;15.754;2022-12-29T18:22:17;4.07;;;2.50;;
13374;SDS011;6756;51.354;15.754;2022-12-29T18:26:20;5.10;;;2.73;;
13374;SDS011;6756;51.354;15.754;2022-12-29T18:30:27;6.13;;;3.03;;
13374;SDS011;6756;51.354;15.754;2022-12-29T18:34:28;6.37;;;3.23;;
13374;SDS011;6756;51.354;15.754;2022-12-29T18:38:29;5.03;;;3.10;;
13374;SDS011;6756;51.354;15.754;2022-12-29T18:42:31;4.90;;;2.83;;
13374;SDS011;6756;51.354;15.754;2022-12-29T18:46:32;4.90;;;2.83;;
13374;SDS011;6756;51.354;15.754;2022-12-29T18:50:33;5.13;;;3.60;;
13374;SDS011;6756;51.354;15.754;2022-12-29T18:54:33;6.20;;;3.73;;
13374;SDS011;6756;51.354;15.754;2022-12-29T18:58:35;5.70;;;3.13;;
13374;SDS011;6756;51.354;15.754;2022-12-29T19:02:36;5.37;;;2.90;;
13374;SDS011;6756;51.354;15.754;2022-12-29T19:06:37;5.50;;;3.33;;
13374;SDS011;6756;51.354;15.754;2022-12-29T19:10:39;8.20;;;3.20;;
13374;SDS011;6756;51.354;15.754;2022-12-29T19:14:41;6.50;;;3.20;;
13374;SDS011;6756;51.354;15.754;2022-12-29T19:18:43;7.40;;;3.10;;
13374;SDS011;6756;51.354;15.754;2022-12-29T19:22:43;5.40;;;3.10;;
13374;SDS011;6756;51.354;15.754;2022-12-29T19:26:44;5.20;;;3.17;;
13374;SDS011;6756;51.354;15.754;2022-12-29T19:30:45;6.63;;;3.60;;
13374;SDS011;6756;51.354;15.754;2022-12-29T19:34:47;6.70;;;3.80;;
13374;SDS011;6756;51.354;15.754;2022-12-29T19:38:48;7.17;;;3.60;;
13374;SDS011;6756;51.354;15.754;2022-12-29T19:42:49;4.70;;;3.20;;
13374;SDS011;6756;51.354;15.754;2022-12-29T19:46:50;4.77;;;3.43;;
13374;SDS011;6756;51.354;15.754;2022-12-29T19:50:51;5.43;;;3.20;;
13374;SDS011;6756;51.354;15.754;2022-12-29T19:54:52;5.50;;;3.13;;
13374;SDS011;6756;51.354;15.754;2022-12-29T19:58:53;4.63;;;3.33;;
13374;SDS011;6756;51.354;15.754;2022-12-29T20:02:56;5.00;;;3.10;;
13374;SDS011;6756;51.354;15.754;2022-12-29T20:06:57;4.77;;;3.40;;
13374;SDS011;6756;51.354;15.754;2022-12-29T20:10:59;6.27;;;3.40;;
13374;SDS011;6756;51.354;15.754;2022-12-29T20:15:12;5.97;;;3.37;;
13374;SDS011;6756;51.354;15.754;2022-12-29T20:19:14;5.00;;;3.13;;
13374;SDS011;6756;51.354;15.754;2022-12-29T20:23:15;4.27;;;2.83;;
13374;SDS011;6756;51.354;15.754;2022-12-29T20:27:16;5.50;;;3.63;;
13374;SDS011;6756;51.354;15.754;2022-12-29T20:31:19;6.17;;;3.53;;
13374;SDS011;6756;51.354;15.754;2022-12-29T20:35:22;4.63;;;3.23;;
13374;SDS011;6756;51.354;15.754;2022-12-29T20:39:23;9.17;;;3.50;;
13374;SDS011;6756;51.354;15.754;2022-12-29T20:43:24;5.90;;;3.27;;
13374;SDS011;6756;51.354;15.754;2022-12-29T20:47:25;6.33;;;3.23;;
13374;SDS011;6756;51.354;15.754;2022-12-29T20:51:27;6.30;;;4.03;;
13374;SDS011;6756;51.354;15.754;2022-12-29T20:55:29;5.70;;;3.23;;
13374;SDS011;6756;51.354;15.754;2022-12-29T20:59:31;5.90;;;3.37;;
13374;SDS011;6756;51.354;15.754;2022-12-29T21:03:32;5.00;;;3.40;;
13374;SDS011;6756;51.354;15.754;2022-12-29T21:07:33;5.80;;;3.27;;
13374;SDS011;6756;51.354;15.754;2022-12-29T21:11:34;5.83;;;3.60;;
13374;SDS011;6756;51.354;15.754;2022-12-29T21:15:35;4.70;;;3.23;;
13374;SDS011;6756;51.354;15.754;2022-12-29T21:19:35;5.87;;;3.10;;
13374;SDS011;6756;51.354;15.754;2022-12-29T21:23:37;5.57;;;3.13;;
13374;SDS011;6756;51.354;15.754;2022-12-29T21:27:39;5.03;;;3.33;;
13374;SDS011;6756;51.354;15.754;2022-12-29T21:31:45;5.97;;;3.57;;
13374;SDS011;6756;51.354;15.754;2022-12-29T21:35:46;6.37;;;3.70;;
13374;SDS011;6756;51.354;15.754;2022-12-29T21:39:47;6.13;;;3.03;;
13374;SDS011;6756;51.354;15.754;2022-12-29T21:43:49;4.63;;;3.43;;
13374;SDS011;6756;51.354;15.754;2022-12-29T21:48:08;5.27;;;3.20;;
13374;SDS011;6756;51.354;15.754;2022-12-29T21:52:22;4.87;;;3.60;;
13374;SDS011;6756;51.354;15.754;2022-12-29T21:56:23;6.60;;;3.63;;
13374;SDS011;6756;51.354;15.754;2022-12-29T22:00:25;4.73;;;3.10;;
13374;SDS011;6756;51.354;15.754;2022-12-29T22:04:44;4.83;;;3.37;;
13374;SDS011;6756;51.354;15.754;2022-12-29T22:09:04;4.57;;;2.93;;
13374;SDS011;6756;51.354;15.754;2022-12-29T22:13:23;3.63;;;2.50;;
13374;SDS011;6756;51.354;15.754;2022-12-29T22:17:25;5.30;;;3.10;;
13374;SDS011;6756;51.354;15.754;2022-12-29T22:21:26;3.77;;;2.70;;
13374;SDS011;6756;51.354;15.754;2022-12-29T22:25:27;5.37;;;2.73;;
13374;SDS011;6756;51.354;15.754;2022-12-29T22:29:28;4.17;;;2.60;;
13374;SDS011;6756;51.354;15.754;2022-12-29T22:33:29;4.43;;;2.80;;
13374;SDS011;6756;51.354;15.754;2022-12-29T22:37:31;5.03;;;2.83;;
13374;SDS011;6756;51.354;15.754;2022-12-29T22:41:33;5.50;;;2.93;;
13374;SDS011;6756;51.354;15.754;2022-12-29T22:45:34;5.63;;;3.03;;
13374;SDS011;6756;51.354;15.754;2022-12-29T22:49:34;5.13;;;3.00;;
13374;SDS011;6756;51.354;15.754;2022-12-29T22:53:35;5.63;;;2.97;;
13374;SDS011;6756;51.354;15.754;2022-12-29T22:57:36;4.00;;;2.50;;
13374;SDS011;6756;51.354;15.754;2022-12-29T23:01:37;3.90;;;2.70;;
13374;SDS011;6756;51.354;15.754;2022-12-29T23:05:38;5.17;;;2.77;;
13374;SDS011;6756;51.354;15.754;2022-12-29T23:09:39;4.97;;;2.93;;
13374;SDS011;6756;51.354;15.754;2022-12-29T23:13:40;3.97;;;2.57;;
13374;SDS011;6756;51.354;15.754;2022-12-29T23:17:43;5.17;;;2.73;;
13374;SDS011;6756;51.354;15.754;2022-12-29T23:21:44;6.20;;;2.87;;
13374;SDS011;6756;51.354;15.754;2022-12-29T23:25:45;3.50;;;2.60;;
13374;SDS011;6756;51.354;15.754;2022-12-29T23:29:45;5.27;;;2.80;;
13374;SDS011;6756;51.354;15.754;2022-12-29T23:33:46;3.70;;;2.23;;
13374;SDS011;6756;51.354;15.754;2022-12-29T23:37:47;4.07;;;2.30;;
13374;SDS011;6756;51.354;15.754;2022-12-29T23:41:48;5.97;;;2.50;;
13374;SDS011;6756;51.354;15.754;2022-12-29T23:45:49;5.40;;;2.50;;
13374;SDS011;6756;51.354;15.754;2022-12-29T23:49:50;3.87;;;2.27;;
13374;SDS011;6756;51.354;15.754;2022-12-29T23:53:51;3.63;;;2.07;;
13374;SDS011;6756;51.354;15.754;2022-12-29T23:57:52;4.00;;;2.40;;
